Time;durP1;ratioP1;P1;durP2;ratioP2;P2;SDS_P1;SDS_P2;PMS_P1;PMS_P2;Temp;Humidity;BMP_temperature;BMP_pressure;BME280_temperature;BME280_humidity;BME280_pressure;Samples;Min_cycle;Max_cycle;Signal;HPM_P1;HPM_P2
2023/01/12 00:00:47;;;;;;;;;;;;;;;;;;5093984;28;19908;-72
2023/01/12 00:03:13;;;;;;;;;;;;;;;;;;5094472;28;19908;-72
2023/01/12 00:05:39;;;;;;;;;;;;;;;;;;5093918;28;19915;-72
2023/01/12 00:08:05;;;;;;;;;;;;;;;;;;5093710;28;19920;-73
2023/01/12 00:10:30;;;;;;;;;;;;;;;;;;5093855;28;20368;-72
2023/01/12 00:12:56;;;;;;;;;;;;;;;;;;5094058;28;19912;-72
2023/01/12 00:18:07;;;;;;;;;;;;;;;;;;5093576;28;19953;-73
2023/01/12 00:20:33;;;;;;;;;;;;;;;;;;5094036;28;19912;-72
2023/01/12 00:22:59;;;;;;;;;;;;;;;;;;5093717;28;19919;-72
2023/01/12 00:25:25;;;;;;;;;;;;;;;;;;5093738;28;19916;-73
2023/01/12 00:27:50;;;;;;;;;;;;;;;;;;5093691;28;19995;-72
2023/01/12 00:30:16;;;;;;;;;;;;;;;;;;5094230;28;20389;-72
2023/01/12 00:32:42;;;;;;;;;;;;;;;;;;5093539;28;19916;-72
2023/01/12 00:35:08;;;;;;;;;;;;;;;;;;5093660;28;19961;-73
2023/01/12 00:37:34;;;;;;;;;;;;;;;;;;5098326;28;19908;-72
2023/01/12 00:40:00;;;;;;;;;;;;;;;;;;5097686;28;19915;-72
2023/01/12 00:45:20;;;;;;;;;;;;;;;;;;5097947;28;19915;-72
2023/01/12 00:47:46;;;;;;;;;;;;;;;;;;5097863;28;19908;-72
2023/01/12 00:50:12;;;;;;;;;;;;;;;;;;5097806;28;20382;-72
2023/01/12 00:52:37;;;;;;;;;;;;;;;;;;5097390;28;19915;-72
2023/01/12 00:55:03;;;;;;;;;;;;;;;;;;5097393;28;19908;-72
2023/01/12 00:57:29;;;;;;;;;;;;;;;;;;5097360;28;20318;-72
2023/01/12 00:59:57;;;;;;;;;;;;;;;;;;5097342;28;19954;-72
2023/01/12 01:02:23;;;;;;;;;;;;;;;;;;5097550;28;19914;-72
2023/01/12 01:04:49;;;;;;;;;;;;;;;;;;5097283;28;19908;-72
2023/01/12 01:07:16;;;;;;;;;;;;;;;;;;5097009;28;19928;-72
2023/01/12 01:09:43;;;;;;;;;;;;;;;;;;5097716;28;19909;-72
2023/01/12 01:12:08;;;;;;;;;;;;;;;;;;5097069;28;19995;-72
2023/01/12 01:14:34;;;;;;;;;;;;;;;;;;5097547;28;20363;-73
2023/01/12 01:17:00;;;;;;;;;;;;;;;;;;5097260;28;19909;-72
2023/01/12 01:19:26;;;;;;;;;;;;;;;;;;5096961;28;20271;-72
2023/01/12 01:21:52;;;;;;;;;;;;;;;;;;5096921;28;19908;-71
2023/01/12 01:24:18;;;;;;;;;;;;;;;;;;5097110;28;19935;-73
2023/01/12 01:26:44;;;;;;;;;;;;;;;;;;5096808;28;19912;-73
2023/01/12 01:29:10;;;;;;;;;;;;;;;;;;5097009;28;19908;-72
2023/01/12 01:31:36;;;;;;;;;;;;;;;;;;5096691;28;19908;-73
2023/01/12 01:34:01;;;;;;;;;;;;;;;;;;5096855;28;20007;-73
2023/01/12 01:36:27;;;;;;;;;;;;;;;;;;5096637;28;19908;-72
2023/01/12 01:38:53;;;;;;;;;;;;;;;;;;5096618;28;20346;-72
2023/01/12 01:41:19;;;;;;;;;;;;;;;;;;5096464;28;20002;-73
2023/01/12 01:43:45;;;;;;;;;;;;;;;;;;5096747;28;19943;-73
2023/01/12 01:46:11;;;;;;;;;;;;;;;;;;5096437;28;19991;-72
2023/01/12 01:48:37;;;;;;;;;;;;;;;;;;5096234;28;20382;-72
2023/01/12 01:51:03;;;;;;;;;;;;;;;;;;5096312;28;19908;-73
2023/01/12 01:53:29;;;;;;;;;;;;;;;;;;5096473;28;19939;-72
2023/01/12 01:55:55;;;;;;;;;;;;;;;;;;5096549;28;19908;-73
2023/01/12 01:58:21;;;;;;;;;;;;;;;;;;5077831;28;19908;-72
2023/01/12 02:00:47;;;;;;;;;;;;;;;;;;5096151;28;20368;-72
2023/01/12 02:03:13;;;;;;;;;;;;;;;;;;5096140;28;19953;-72
2023/01/12 02:05:39;;;;;;;;;;;;;;;;;;5096339;28;19923;-72
2023/01/12 02:23:57;;;;;;;;;;;;;;;;;;4627112;28;19924;-68
2023/01/12 02:26:23;;;;;;;;;;;;;;;;;;5014281;28;19996;-69
2023/01/12 02:28:49;;;;;;;;;;;;;;;;;;5015738;28;19959;-71
2023/01/12 02:31:15;;;;;;;;;;;;;;;;;;5015925;28;19905;-69
2023/01/12 02:36:25;;;;;;;;;;;;;;;;;;5015608;28;20447;-70
2023/01/12 02:38:51;;;;;;;;;;;;;;;;;;5014213;28;19909;-69
2023/01/12 02:41:17;;;;;;;;;;;;;;;;;;5015477;28;19925;-70
2023/01/12 02:43:43;;;;;;;;;;;;;;;;;;5015949;28;19996;-70
2023/01/12 02:46:10;;;;;;;;;;;;;;;;;;5015340;28;20357;-70
2023/01/12 02:48:36;;;;;;;;;;;;;;;;;;5015687;28;19910;-69
2023/01/12 02:51:02;;;;;;;;;;;;;;;;;;5015280;28;19968;-69
2023/01/12 02:53:27;;;;;;;;;;;;;;;;;;5015460;28;19940;-71
2023/01/12 02:55:53;;;;;;;;;;;;;;;;;;5015466;28;19910;-69
2023/01/12 02:58:19;;;;;;;;;;;;;;;;;;5015072;28;19910;-69
2023/01/12 03:00:45;;;;;;;;;;;;;;;;;;5014781;28;20361;-70
2023/01/12 03:03:11;;;;;;;;;;;;;;;;;;5015049;28;20052;-70
2023/01/12 03:05:37;;;;;;;;;;;;;;;;;;5015328;28;19909;-70
2023/01/12 03:08:03;;;;;;;;;;;;;;;;;;5014993;28;19910;-70
2023/01/12 03:10:29;;;;;;;;;;;;;;;;;;5015480;28;20407;-68
2023/01/12 03:12:55;;;;;;;;;;;;;;;;;;5013554;28;19968;-69
2023/01/12 03:15:22;;;;;;;;;;;;;;;;;;5015116;28;19909;-71
2023/01/12 03:17:47;;;;;;;;;;;;;;;;;;5014815;28;19914;-71
2023/01/12 03:20:13;;;;;;;;;;;;;;;;;;5009497;28;20432;-70
2023/01/12 03:22:39;;;;;;;;;;;;;;;;;;4994949;28;20017;-69
2023/01/12 03:25:08;;;;;;;;;;;;;;;;;;4995674;28;19972;-70
2023/01/12 03:27:33;;;;;;;;;;;;;;;;;;4995065;28;19964;-70
2023/01/12 03:29:59;;;;;;;;;;;;;;;;;;4995100;28;19914;-70
2023/01/12 03:32:25;;;;;;;;;;;;;;;;;;4995257;28;20250;-71
2023/01/12 03:34:51;;;;;;;;;;;;;;;;;;4994861;28;19925;-69
2023/01/12 03:37:17;;;;;;;;;;;;;;;;;;4994936;28;19910;-69
2023/01/12 03:39:43;;;;;;;;;;;;;;;;;;4995382;28;20354;-70
2023/01/12 03:42:09;;;;;;;;;;;;;;;;;;4994823;28;19917;-70
2023/01/12 03:44:35;;;;;;;;;;;;;;;;;;4995047;28;19909;-69
2023/01/12 03:47:01;;;;;;;;;;;;;;;;;;4994999;28;20008;-69
2023/01/12 03:49:26;;;;;;;;;;;;;;;;;;4994699;28;19916;-69
2023/01/12 03:51:52;;;;;;;;;;;;;;;;;;4994670;28;19964;-71
2023/01/12 03:54:18;;;;;;;;;;;;;;;;;;4994566;28;19951;-71
2023/01/12 03:56:44;;;;;;;;;;;;;;;;;;4995179;28;20373;-70
2023/01/12 03:59:10;;;;;;;;;;;;;;;;;;4994845;28;19916;-70
2023/01/12 04:01:36;;;;;;;;;;;;;;;;;;4994571;28;19916;-68
2023/01/12 04:04:02;;;;;;;;;;;;;;;;;;4994731;28;19917;-69
2023/01/12 04:06:28;;;;;;;;;;;;;;;;;;4994736;28;20255;-70
2023/01/12 04:08:54;;;;;;;;;;;;;;;;;;4994726;28;19910;-69
2023/01/12 04:14:04;;;;;;;;;;;;;;;;;;4994118;28;19920;-71
2023/01/12 04:16:30;;;;;;;;;;;;;;;;;;4994445;28;19909;-72
2023/01/12 04:18:56;;;;;;;;;;;;;;;;;;4992972;28;20382;-69
2023/01/12 04:24:06;;;;;;;;;;;;;;;;;;4994176;28;19964;-71
2023/01/12 04:26:32;;;;;;;;;;;;;;;;;;4994607;28;19910;-69
2023/01/12 04:28:58;;;;;;;;;;;;;;;;;;4994279;28;20000;-68
2023/01/12 04:31:24;;;;;;;;;;;;;;;;;;4994280;28;19916;-70
2023/01/12 04:33:50;;;;;;;;;;;;;;;;;;4994172;28;19924;-70
2023/01/12 04:36:16;;;;;;;;;;;;;;;;;;4994779;28;20350;-70
2023/01/12 04:38:42;;;;;;;;;;;;;;;;;;4994516;28;19910;-70
2023/01/12 04:41:07;;;;;;;;;;;;;;;;;;4994161;28;20336;-70
2023/01/12 04:43:33;;;;;;;;;;;;;;;;;;4994451;28;19909;-70
2023/01/12 04:45:59;;;;;;;;;;;;;;;;;;4994409;28;19917;-69
2023/01/12 04:48:25;;;;;;;;;;;;;;;;;;4994676;28;19969;-70
2023/01/12 04:50:51;;;;;;;;;;;;;;;;;;4994033;28;20357;-69
2023/01/12 04:53:20;;;;;;;;;;;;;;;;;;4992712;28;20361;-70
2023/01/12 04:55:46;;;;;;;;;;;;;;;;;;4994022;28;20332;-70
2023/01/12 04:58:12;;;;;;;;;;;;;;;;;;4994601;28;19910;-72
2023/01/12 05:00:38;;;;;;;;;;;;;;;;;;4993999;28;19936;-67
2023/01/12 05:03:04;;;;;;;;;;;;;;;;;;4994026;28;19973;-70
2023/01/12 05:05:30;;;;;;;;;;;;;;;;;;4994001;28;19953;-70
2023/01/12 05:10:40;;;;;;;;;;;;;;;;;;4994184;28;19916;-70
2023/01/12 05:13:06;;;;;;;;;;;;;;;;;;4993809;28;19914;-70
2023/01/12 05:15:32;;;;;;;;;;;;;;;;;;4993872;28;19910;-68
2023/01/12 05:17:58;;;;;;;;;;;;;;;;;;4994135;28;20090;-68
2023/01/12 05:20:23;;;;;;;;;;;;;;;;;;4993972;28;19909;-68
2023/01/12 05:22:51;;;;;;;;;;;;;;;;;;4994864;28;19956;-69
2023/01/12 05:25:17;;;;;;;;;;;;;;;;;;4997355;28;19960;-69
2023/01/12 05:27:43;;;;;;;;;;;;;;;;;;4997291;28;19910;-70
2023/01/12 05:30:09;;;;;;;;;;;;;;;;;;4997810;28;19910;-69
2023/01/12 05:32:35;;;;;;;;;;;;;;;;;;4997151;28;19910;-69
2023/01/12 05:35:00;;;;;;;;;;;;;;;;;;4997180;28;19910;-70
2023/01/12 05:37:26;;;;;;;;;;;;;;;;;;4997110;28;19910;-69
2023/01/12 05:39:52;;;;;;;;;;;;;;;;;;4997356;28;19917;-70
2023/01/12 05:45:02;;;;;;;;;;;;;;;;;;4997010;28;20329;-70
2023/01/12 05:47:28;;;;;;;;;;;;;;;;;;4996929;28;19914;-69
2023/01/12 05:49:54;;;;;;;;;;;;;;;;;;4997161;28;19910;-72
2023/01/12 05:52:20;;;;;;;;;;;;;;;;;;4996846;28;19910;-68
2023/01/12 05:54:46;;;;;;;;;;;;;;;;;;4996726;28;20006;-69
2023/01/12 05:57:12;;;;;;;;;;;;;;;;;;4996783;28;19917;-69
2023/01/12 05:59:38;;;;;;;;;;;;;;;;;;4997013;28;19913;-69
2023/01/12 06:02:04;;;;;;;;;;;;;;;;;;4996685;28;20008;-70
2023/01/12 06:04:30;;;;;;;;;;;;;;;;;;4997227;28;20389;-70
2023/01/12 06:06:56;;;;;;;;;;;;;;;;;;4996595;28;19996;-69
2023/01/12 06:09:21;;;;;;;;;;;;;;;;;;4997106;28;19910;-70
2023/01/12 06:14:32;;;;;;;;;;;;;;;;;;4996186;28;19973;-68
2023/01/12 06:16:58;;;;;;;;;;;;;;;;;;4996417;28;19917;-70
2023/01/12 06:19:24;;;;;;;;;;;;;;;;;;4996656;28;19952;-70
2023/01/12 06:21:50;;;;;;;;;;;;;;;;;;4996308;28;19993;-70
2023/01/12 06:24:16;;;;;;;;;;;;;;;;;;4995909;28;19941;-70
2023/01/12 06:26:43;;;;;;;;;;;;;;;;;;4996784;28;20346;-72
2023/01/12 06:29:09;;;;;;;;;;;;;;;;;;4996225;28;19910;-69
2023/01/12 06:31:37;;;;;;;;;;;;;;;;;;4994841;28;20000;-70
2023/01/12 06:34:03;;;;;;;;;;;;;;;;;;4995828;28;20274;-70
2023/01/12 06:36:29;;;;;;;;;;;;;;;;;;4996632;28;20285;-70
2023/01/12 06:38:55;;;;;;;;;;;;;;;;;;4995968;28;19909;-69
2023/01/12 06:44:05;;;;;;;;;;;;;;;;;;4995580;28;19917;-70
2023/01/12 06:46:31;;;;;;;;;;;;;;;;;;4995819;28;19910;-70
2023/01/12 06:48:57;;;;;;;;;;;;;;;;;;4995818;28;19976;-70
2023/01/12 06:51:23;;;;;;;;;;;;;;;;;;4996340;28;20254;-69
2023/01/12 06:53:49;;;;;;;;;;;;;;;;;;4995820;28;19921;-70
2023/01/12 06:56:15;;;;;;;;;;;;;;;;;;4995674;28;19917;-70
2023/01/12 06:58:41;;;;;;;;;;;;;;;;;;4995627;28;19917;-71
2023/01/12 07:01:07;;;;;;;;;;;;;;;;;;4995584;28;20005;-70
2023/01/12 07:03:33;;;;;;;;;;;;;;;;;;4996051;28;19910;-69
2023/01/12 07:05:58;;;;;;;;;;;;;;;;;;4994228;28;19920;-69
2023/01/12 07:08:24;;;;;;;;;;;;;;;;;;4995435;28;20370;-72
2023/01/12 07:10:50;;;;;;;;;;;;;;;;;;4995404;28;19909;-70
2023/01/12 07:13:16;;;;;;;;;;;;;;;;;;4995535;28;19969;-71
2023/01/12 07:15:42;;;;;;;;;;;;;;;;;;4995551;28;19945;-68
2023/01/12 07:18:08;;;;;;;;;;;;;;;;;;4995835;28;19936;-70
2023/01/12 07:20:34;;;;;;;;;;;;;;;;;;4995114;28;19913;-69
2023/01/12 07:23:00;;;;;;;;;;;;;;;;;;4995015;28;19925;-69
2023/01/12 07:25:26;;;;;;;;;;;;;;;;;;4995122;28;20334;-69
2023/01/12 07:27:52;;;;;;;;;;;;;;;;;;4995109;28;19910;-70
2023/01/12 07:30:17;;;;;;;;;;;;;;;;;;4995299;28;19909;-71
2023/01/12 07:32:43;;;;;;;;;;;;;;;;;;4994874;28;19960;-71
2023/01/12 07:35:09;;;;;;;;;;;;;;;;;;4995449;28;20350;-69
2023/01/12 07:37:35;;;;;;;;;;;;;;;;;;4994889;28;19910;-71
2023/01/12 07:40:01;;;;;;;;;;;;;;;;;;4995411;28;20384;-70
2023/01/12 07:42:27;;;;;;;;;;;;;;;;;;4995094;28;19910;-70
2023/01/12 07:44:53;;;;;;;;;;;;;;;;;;4994507;28;19910;-68
2023/01/12 07:47:19;;;;;;;;;;;;;;;;;;4995126;28;20272;-70
2023/01/12 07:49:45;;;;;;;;;;;;;;;;;;4994683;28;20254;-68
2023/01/12 07:52:11;;;;;;;;;;;;;;;;;;4994671;28;19913;-70
2023/01/12 07:54:37;;;;;;;;;;;;;;;;;;4991920;28;20289;-73
2023/01/12 07:57:03;;;;;;;;;;;;;;;;;;4993394;28;20293;-71
2023/01/12 07:59:29;;;;;;;;;;;;;;;;;;4994587;28;19913;-74
2023/01/12 08:01:55;;;;;;;;;;;;;;;;;;4993793;28;19921;-69
2023/01/12 08:04:20;;;;;;;;;;;;;;;;;;4994049;28;19949;-73
2023/01/12 08:06:47;;;;;;;;;;;;;;;;;;4994366;28;19956;-74
2023/01/12 08:09:12;;;;;;;;;;;;;;;;;;4993291;28;19960;-73
2023/01/12 08:11:38;;;;;;;;;;;;;;;;;;4995011;28;20000;-72
2023/01/12 08:14:04;;;;;;;;;;;;;;;;;;4994492;28;19924;-77
2023/01/12 08:16:30;;;;;;;;;;;;;;;;;;4994392;28;19914;-74
2023/01/12 08:18:56;;;;;;;;;;;;;;;;;;4993363;28;19920;-70
2023/01/12 08:21:22;;;;;;;;;;;;;;;;;;4994267;28;19909;-71
2023/01/12 08:23:48;;;;;;;;;;;;;;;;;;4994171;28;19976;-70
2023/01/12 08:26:14;;;;;;;;;;;;;;;;;;4991642;28;19914;-71
2023/01/12 08:28:42;;;;;;;;;;;;;;;;;;4991564;28;19952;-72
2023/01/12 08:31:08;;;;;;;;;;;;;;;;;;4992808;28;20362;-75
2023/01/12 08:33:34;;;;;;;;;;;;;;;;;;4992983;28;20037;-73
2023/01/12 08:36:00;;;;;;;;;;;;;;;;;;4993012;28;19934;-72
2023/01/12 08:38:26;;;;;;;;;;;;;;;;;;4992649;28;19933;-78
2023/01/12 08:46:21;;;;;;;;;;;;;;;;;;4993625;28;19921;-73
2023/01/12 08:48:47;;;;;;;;;;;;;;;;;;4993985;28;19950;-70
2023/01/12 08:51:13;;;;;;;;;;;;;;;;;;4993962;28;20366;-74
2023/01/12 08:53:39;;;;;;;;;;;;;;;;;;4993726;28;19972;-72
2023/01/12 08:56:04;;;;;;;;;;;;;;;;;;4993708;28;20378;-77
2023/01/12 08:58:30;;;;;;;;;;;;;;;;;;4994877;28;19917;-78
2023/01/12 09:00:57;;;;;;;;;;;;;;;;;;4997873;28;20398;-78
2023/01/12 09:03:23;;;;;;;;;;;;;;;;;;4996495;28;19917;-78
2023/01/12 09:05:49;;;;;;;;;;;;;;;;;;4997905;28;19914;-77
2023/01/12 09:08:15;;;;;;;;;;;;;;;;;;4998006;28;19917;-72
2023/01/12 09:10:41;;;;;;;;;;;;;;;;;;4997895;28;19910;-72
2023/01/12 09:13:07;;;;;;;;;;;;;;;;;;4997530;28;19921;-73
2023/01/12 09:15:33;;;;;;;;;;;;;;;;;;4997875;28;19910;-74
2023/01/12 09:17:59;;;;;;;;;;;;;;;;;;4997448;28;19921;-72
2023/01/12 09:20:25;;;;;;;;;;;;;;;;;;4997048;28;19913;-72
2023/01/12 09:22:51;;;;;;;;;;;;;;;;;;4995734;28;20378;-70
2023/01/12 09:25:16;;;;;;;;;;;;;;;;;;4996044;28;19910;-70
2023/01/12 09:27:42;;;;;;;;;;;;;;;;;;4997527;28;19910;-71
2023/01/12 09:30:08;;;;;;;;;;;;;;;;;;4994845;28;19960;-72
2023/01/12 09:32:34;;;;;;;;;;;;;;;;;;4996563;28;20488;-75
2023/01/12 09:35:00;;;;;;;;;;;;;;;;;;4997076;28;19917;-73
2023/01/12 09:37:26;;;;;;;;;;;;;;;;;;4996577;28;19914;-71
2023/01/12 09:39:52;;;;;;;;;;;;;;;;;;4997002;28;19921;-71
2023/01/12 09:47:47;;;;;;;;;;;;;;;;;;4997037;28;19917;-71
2023/01/12 09:50:13;;;;;;;;;;;;;;;;;;4996928;28;19913;-74
2023/01/12 09:52:38;;;;;;;;;;;;;;;;;;4997127;28;19914;-67
2023/01/12 09:55:04;;;;;;;;;;;;;;;;;;4997078;28;19918;-71
2023/01/12 09:57:33;;;;;;;;;;;;;;;;;;4996476;28;19991;-71
2023/01/12 09:59:58;;;;;;;;;;;;;;;;;;4997282;28;20354;-73
2023/01/12 10:02:25;;;;;;;;;;;;;;;;;;4995934;28;19910;-74
2023/01/12 10:04:51;;;;;;;;;;;;;;;;;;4996931;28;20326;-73
2023/01/12 10:07:17;;;;;;;;;;;;;;;;;;4996819;28;19925;-72
2023/01/12 10:09:43;;;;;;;;;;;;;;;;;;4994778;28;20281;-69
2023/01/12 10:12:09;;;;;;;;;;;;;;;;;;4998522;28;20000;-71
2023/01/12 10:14:35;;;;;;;;;;;;;;;;;;4995701;28;19918;-75
2023/01/12 10:17:01;;;;;;;;;;;;;;;;;;4997022;28;19972;-76
2023/01/12 10:19:27;;;;;;;;;;;;;;;;;;4996334;28;19917;-74
2023/01/12 10:21:53;;;;;;;;;;;;;;;;;;4996783;28;19941;-74
2023/01/12 10:24:20;;;;;;;;;;;;;;;;;;4995694;28;19922;-76
2023/01/12 10:26:46;;;;;;;;;;;;;;;;;;4996299;28;19910;-73
2023/01/12 10:29:12;;;;;;;;;;;;;;;;;;4996134;28;20298;-72
2023/01/12 10:31:37;;;;;;;;;;;;;;;;;;4996420;28;19918;-71
2023/01/12 10:34:05;;;;;;;;;;;;;;;;;;4996614;28;19918;-74
2023/01/12 10:36:31;;;;;;;;;;;;;;;;;;4995889;28;19914;-77
2023/01/12 10:38:58;;;;;;;;;;;;;;;;;;4994476;28;19910;-74
2023/01/12 10:41:25;;;;;;;;;;;;;;;;;;4994688;28;20016;-74
2023/01/12 10:43:51;;;;;;;;;;;;;;;;;;4995782;28;20384;-77
2023/01/12 10:46:17;;;;;;;;;;;;;;;;;;4994576;28;19910;-71
2023/01/12 10:48:43;;;;;;;;;;;;;;;;;;4994321;28;19914;-74
2023/01/12 10:51:08;;;;;;;;;;;;;;;;;;4995600;28;19964;-74
2023/01/12 10:53:35;;;;;;;;;;;;;;;;;;4995516;28;20008;-74
2023/01/12 10:56:02;;;;;;;;;;;;;;;;;;4996252;28;19910;-73
2023/01/12 10:58:28;;;;;;;;;;;;;;;;;;4995056;28;20381;-71
2023/01/12 11:00:54;;;;;;;;;;;;;;;;;;4995597;28;19949;-75
2023/01/12 11:03:20;;;;;;;;;;;;;;;;;;4995830;28;20301;-76
2023/01/12 11:05:46;;;;;;;;;;;;;;;;;;4995734;28;19910;-75
2023/01/12 11:08:12;;;;;;;;;;;;;;;;;;4995600;28;19928;-75
2023/01/12 11:10:38;;;;;;;;;;;;;;;;;;4995399;28;20333;-72
2023/01/12 11:13:04;;;;;;;;;;;;;;;;;;4994025;28;19957;-75
2023/01/12 11:15:32;;;;;;;;;;;;;;;;;;4995559;28;19938;-75
2023/01/12 11:18:00;;;;;;;;;;;;;;;;;;4994567;28;20136;-76
2023/01/12 11:20:26;;;;;;;;;;;;;;;;;;4994571;28;19914;-75
2023/01/12 11:22:53;;;;;;;;;;;;;;;;;;4994909;28;19917;-77
2023/01/12 11:25:20;;;;;;;;;;;;;;;;;;4994848;28;19918;-71
2023/01/12 11:27:45;;;;;;;;;;;;;;;;;;4995140;28;19910;-75
2023/01/12 11:30:14;;;;;;;;;;;;;;;;;;4994971;28;19913;-74
2023/01/12 11:32:40;;;;;;;;;;;;;;;;;;4992066;28;19916;-76
2023/01/12 11:35:05;;;;;;;;;;;;;;;;;;4995167;28;20297;-74
2023/01/12 11:37:31;;;;;;;;;;;;;;;;;;5003292;28;19916;-73
2023/01/12 11:39:57;;;;;;;;;;;;;;;;;;5000789;28;19914;-75
2023/01/12 11:45:08;;;;;;;;;;;;;;;;;;4994607;28;19917;-74
2023/01/12 11:47:34;;;;;;;;;;;;;;;;;;4995060;28;19910;-75
2023/01/12 11:49:59;;;;;;;;;;;;;;;;;;4994744;28;20285;-74
2023/01/12 11:52:25;;;;;;;;;;;;;;;;;;4994967;28;19945;-74
2023/01/12 11:54:51;;;;;;;;;;;;;;;;;;4994609;28;19964;-75
2023/01/12 11:57:17;;;;;;;;;;;;;;;;;;4994895;28;19917;-74
2023/01/12 11:59:43;;;;;;;;;;;;;;;;;;4994578;28;19917;-74
2023/01/12 12:02:09;;;;;;;;;;;;;;;;;;4995091;28;20281;-75
2023/01/12 12:04:35;;;;;;;;;;;;;;;;;;4994545;28;19937;-74
2023/01/12 12:07:01;;;;;;;;;;;;;;;;;;4994809;28;19909;-74
2023/01/12 12:09:27;;;;;;;;;;;;;;;;;;4993240;28;20397;-75
2023/01/12 12:11:52;;;;;;;;;;;;;;;;;;4993160;28;19910;-74
2023/01/12 12:14:18;;;;;;;;;;;;;;;;;;4994627;28;19918;-74
2023/01/12 12:16:44;;;;;;;;;;;;;;;;;;4994630;28;20008;-74
2023/01/12 12:19:10;;;;;;;;;;;;;;;;;;4994922;28;19910;-74
2023/01/12 12:21:36;;;;;;;;;;;;;;;;;;4994249;28;19910;-75
2023/01/12 12:24:02;;;;;;;;;;;;;;;;;;4993998;28;19918;-74
2023/01/12 12:26:29;;;;;;;;;;;;;;;;;;4993021;28;19933;-75
2023/01/12 12:28:55;;;;;;;;;;;;;;;;;;4993005;28;19996;-74
2023/01/12 12:31:21;;;;;;;;;;;;;;;;;;4995131;28;20350;-75
2023/01/12 12:33:49;;;;;;;;;;;;;;;;;;4998513;28;19918;-74
2023/01/12 12:36:16;;;;;;;;;;;;;;;;;;4998283;28;19909;-76
2023/01/12 12:38:42;;;;;;;;;;;;;;;;;;4998238;28;19917;-75
2023/01/12 12:46:37;;;;;;;;;;;;;;;;;;4998140;28;20274;-76
2023/01/12 12:49:03;;;;;;;;;;;;;;;;;;4998007;28;19910;-74
2023/01/12 12:51:29;;;;;;;;;;;;;;;;;;4998244;28;19921;-75
2023/01/12 12:53:55;;;;;;;;;;;;;;;;;;4997878;28;20285;-75
2023/01/12 12:56:21;;;;;;;;;;;;;;;;;;4997942;28;19910;-74
2023/01/12 12:58:47;;;;;;;;;;;;;;;;;;4998452;28;19917;-74
2023/01/12 13:01:13;;;;;;;;;;;;;;;;;;4996547;28;19916;-74
2023/01/12 13:03:39;;;;;;;;;;;;;;;;;;4996516;28;20289;-74
2023/01/12 13:06:05;;;;;;;;;;;;;;;;;;4997725;28;19914;-74
2023/01/12 13:08:31;;;;;;;;;;;;;;;;;;4997972;28;19910;-75
2023/01/12 13:10:57;;;;;;;;;;;;;;;;;;4997937;28;19910;-74
2023/01/12 13:13:23;;;;;;;;;;;;;;;;;;4997510;28;19929;-74
2023/01/12 13:15:49;;;;;;;;;;;;;;;;;;4998096;28;20313;-74
2023/01/12 13:18:15;;;;;;;;;;;;;;;;;;4997484;28;19910;-72
2023/01/12 13:20:41;;;;;;;;;;;;;;;;;;4997683;28;19917;-72
2023/01/12 13:23:07;;;;;;;;;;;;;;;;;;4995968;28;19918;-72
2023/01/12 13:25:33;;;;;;;;;;;;;;;;;;4997244;28;20005;-73
2023/01/12 13:27:59;;;;;;;;;;;;;;;;;;4996852;28;20404;-72
2023/01/12 13:30:25;;;;;;;;;;;;;;;;;;4997842;28;19964;-70
2023/01/12 13:32:51;;;;;;;;;;;;;;;;;;4996933;28;20301;-72
2023/01/12 13:35:16;;;;;;;;;;;;;;;;;;4996726;28;19913;-73
2023/01/12 13:37:43;;;;;;;;;;;;;;;;;;4997138;28;19916;-72
2023/01/12 13:40:09;;;;;;;;;;;;;;;;;;4997687;28;19914;-68
2023/01/12 13:45:19;;;;;;;;;;;;;;;;;;4996793;28;19921;-70
2023/01/12 13:47:45;;;;;;;;;;;;;;;;;;4997046;28;19910;-77
2023/01/12 13:50:11;;;;;;;;;;;;;;;;;;4996460;28;20387;-73
2023/01/12 13:52:38;;;;;;;;;;;;;;;;;;4997497;28;20008;-72
2023/01/12 13:55:04;;;;;;;;;;;;;;;;;;4997084;28;19914;-72
2023/01/12 13:57:30;;;;;;;;;;;;;;;;;;4997092;28;20255;-74
2023/01/12 13:59:56;;;;;;;;;;;;;;;;;;4996819;28;19916;-74
2023/01/12 14:02:22;;;;;;;;;;;;;;;;;;4996339;28;19960;-73
2023/01/12 14:04:48;;;;;;;;;;;;;;;;;;4997172;28;19914;-76
2023/01/12 14:07:14;;;;;;;;;;;;;;;;;;4996867;28;19910;-75
2023/01/12 14:09:40;;;;;;;;;;;;;;;;;;4996627;28;19925;-76
2023/01/12 14:12:06;;;;;;;;;;;;;;;;;;4994776;28;20001;-75
2023/01/12 14:20:02;;;;;;;;;;;;;;;;;;4996478;28;20357;-72
2023/01/12 14:22:27;;;;;;;;;;;;;;;;;;4995921;28;19914;-72
2023/01/12 14:24:53;;;;;;;;;;;;;;;;;;4996582;28;20424;-74
2023/01/12 14:27:20;;;;;;;;;;;;;;;;;;4996538;28;19914;-73
2023/01/12 14:29:45;;;;;;;;;;;;;;;;;;4995712;28;19914;-75
2023/01/12 14:32:11;;;;;;;;;;;;;;;;;;4996420;28;19916;-74
2023/01/12 14:34:37;;;;;;;;;;;;;;;;;;4996283;28;19922;-80
2023/01/12 14:37:03;;;;;;;;;;;;;;;;;;4996069;28;19909;-75
2023/01/12 14:39:29;;;;;;;;;;;;;;;;;;4995968;28;19913;-69
2023/01/12 14:47:25;;;;;;;;;;;;;;;;;;4995952;28;19933;-76
2023/01/12 14:49:50;;;;;;;;;;;;;;;;;;4996079;28;20354;-74
2023/01/12 14:52:16;;;;;;;;;;;;;;;;;;4996054;28;19910;-72
2023/01/12 14:54:42;;;;;;;;;;;;;;;;;;4994757;28;19925;-75
2023/01/12 14:57:08;;;;;;;;;;;;;;;;;;4995382;28;19968;-71
2023/01/12 14:59:34;;;;;;;;;;;;;;;;;;4995024;28;19914;-71
2023/01/12 15:02:00;;;;;;;;;;;;;;;;;;4995518;28;19960;-70
2023/01/12 15:04:26;;;;;;;;;;;;;;;;;;4995207;28;19914;-71
2023/01/12 15:06:52;;;;;;;;;;;;;;;;;;4995516;28;20357;-73
2023/01/12 15:09:17;;;;;;;;;;;;;;;;;;4995543;28;19937;-74
2023/01/12 15:11:43;;;;;;;;;;;;;;;;;;4994223;28;20321;-75
2023/01/12 15:14:09;;;;;;;;;;;;;;;;;;4995503;28;19917;-74
2023/01/12 15:27:34;;;;;;;;;;;;;;;;;;4994902;28;19964;-70
2023/01/12 15:30:00;;;;;;;;;;;;;;;;;;4995298;28;19910;-71
2023/01/12 15:32:26;;;;;;;;;;;;;;;;;;4994578;28;19972;-71
2023/01/12 15:34:52;;;;;;;;;;;;;;;;;;4994964;28;19922;-72
2023/01/12 15:37:18;;;;;;;;;;;;;;;;;;4995073;28;19910;-74
2023/01/12 15:39:43;;;;;;;;;;;;;;;;;;4994487;28;19917;-72
2023/01/12 15:42:15;;;;;;;;;;;;;;;;;;4995299;28;19922;-73
2023/01/12 15:44:41;;;;;;;;;;;;;;;;;;4994738;28;20385;-73
2023/01/12 15:47:07;;;;;;;;;;;;;;;;;;4994902;28;19992;-72
2023/01/12 15:49:33;;;;;;;;;;;;;;;;;;4995530;28;19910;-71
2023/01/12 15:51:59;;;;;;;;;;;;;;;;;;4994809;28;19914;-77
2023/01/12 15:54:25;;;;;;;;;;;;;;;;;;4994546;28;19940;-75
2023/01/12 15:56:52;;;;;;;;;;;;;;;;;;4994235;28;20012;-75
2023/01/12 15:59:18;;;;;;;;;;;;;;;;;;4994118;28;19910;-73
2023/01/12 16:01:44;;;;;;;;;;;;;;;;;;4993862;28;19920;-76
2023/01/12 16:04:10;;;;;;;;;;;;;;;;;;4994135;28;19933;-74
2023/01/12 16:06:36;;;;;;;;;;;;;;;;;;4993877;28;19913;-78
2023/01/12 16:09:02;;;;;;;;;;;;;;;;;;4994840;28;19910;-72
2023/01/12 16:11:28;;;;;;;;;;;;;;;;;;4993944;28;19917;-75
2023/01/12 16:13:54;;;;;;;;;;;;;;;;;;4993179;28;20273;-73
2023/01/12 16:16:20;;;;;;;;;;;;;;;;;;4994596;28;19910;-72
2023/01/12 16:18:47;;;;;;;;;;;;;;;;;;4994015;28;20278;-73
2023/01/12 16:21:13;;;;;;;;;;;;;;;;;;4994725;28;19914;-73
2023/01/12 16:23:39;;;;;;;;;;;;;;;;;;4994244;28;19928;-73
2023/01/12 16:26:05;;;;;;;;;;;;;;;;;;4994308;28;19921;-73
2023/01/12 16:28:31;;;;;;;;;;;;;;;;;;4993639;28;19914;-73
2023/01/12 16:30:57;;;;;;;;;;;;;;;;;;4994072;28;19913;-73
2023/01/12 16:33:23;;;;;;;;;;;;;;;;;;4993039;28;19928;-72
2023/01/12 16:35:49;;;;;;;;;;;;;;;;;;4993623;28;19997;-73
2023/01/12 16:38:15;;;;;;;;;;;;;;;;;;4994199;28;20258;-73
2023/01/12 16:40:41;;;;;;;;;;;;;;;;;;4993658;28;19917;-74
2023/01/12 16:43:07;;;;;;;;;;;;;;;;;;4993661;28;19909;-74
2023/01/12 16:45:33;;;;;;;;;;;;;;;;;;4993568;28;19910;-73
2023/01/12 16:47:59;;;;;;;;;;;;;;;;;;4993633;28;20300;-73
2023/01/12 16:50:25;;;;;;;;;;;;;;;;;;4993802;28;20004;-73
2023/01/12 16:52:51;;;;;;;;;;;;;;;;;;4993856;28;19938;-73
2023/01/12 16:55:17;;;;;;;;;;;;;;;;;;4993992;28;19964;-73
2023/01/12 16:57:43;;;;;;;;;;;;;;;;;;4992747;28;19909;-73
2023/01/12 17:00:09;;;;;;;;;;;;;;;;;;4994547;28;20363;-73
2023/01/12 17:02:35;;;;;;;;;;;;;;;;;;4994280;28;19941;-73
2023/01/12 17:05:01;;;;;;;;;;;;;;;;;;4994222;28;20411;-74
2023/01/12 17:07:27;;;;;;;;;;;;;;;;;;4993954;28;19910;-73
2023/01/12 17:09:52;;;;;;;;;;;;;;;;;;4993928;28;19913;-73
2023/01/12 17:12:18;;;;;;;;;;;;;;;;;;4994201;28;19917;-73
2023/01/12 17:14:44;;;;;;;;;;;;;;;;;;4993851;28;20363;-73
2023/01/12 17:17:10;;;;;;;;;;;;;;;;;;4993864;28;19910;-73
2023/01/12 17:19:36;;;;;;;;;;;;;;;;;;4995989;28;19914;-73
2023/01/12 17:22:02;;;;;;;;;;;;;;;;;;4997780;28;19910;-73
2023/01/12 17:24:28;;;;;;;;;;;;;;;;;;4995761;28;20009;-73
2023/01/12 17:26:55;;;;;;;;;;;;;;;;;;4997929;28;19917;-73
2023/01/12 17:29:21;;;;;;;;;;;;;;;;;;4997321;28;19910;-73
2023/01/12 17:31:47;;;;;;;;;;;;;;;;;;4997454;28;19933;-73
2023/01/12 17:34:13;;;;;;;;;;;;;;;;;;4995860;28;19918;-73
2023/01/12 17:36:39;;;;;;;;;;;;;;;;;;4997747;28;19914;-73
2023/01/12 17:39:04;;;;;;;;;;;;;;;;;;4997206;28;19910;-73
2023/01/12 17:44:15;;;;;;;;;;;;;;;;;;4997114;28;19917;-73
2023/01/12 17:46:41;;;;;;;;;;;;;;;;;;4997057;28;19910;-73
2023/01/12 17:49:07;;;;;;;;;;;;;;;;;;4997012;28;20384;-72
2023/01/12 17:51:33;;;;;;;;;;;;;;;;;;4996981;28;19913;-73
2023/01/12 17:53:59;;;;;;;;;;;;;;;;;;4996843;28;19984;-73
2023/01/12 17:56:24;;;;;;;;;;;;;;;;;;4997141;28;19980;-73
2023/01/12 17:58:50;;;;;;;;;;;;;;;;;;4996838;28;19910;-73
2023/01/12 18:01:16;;;;;;;;;;;;;;;;;;4996762;28;19964;-73
2023/01/12 18:03:42;;;;;;;;;;;;;;;;;;4996729;28;19916;-73